sensor_id;sensor_type;location;lat;lon;timestamp;pressure;altitude;pressure_sealevel;temperature;humidity
4410;BME280;2218;51.408;7.208;2024-03-08T00:00:34;99967.38;;;18.65;34.91
4410;BME280;2218;51.408;7.208;2024-03-08T00:03:01;99966.50;;;18.65;35.07
4410;BME280;2218;51.408;7.208;2024-03-08T00:05:29;99960.50;;;18.63;35.13
4410;BME280;2218;51.408;7.208;2024-03-08T00:07:56;99961.34;;;18.63;35.15
4410;BME280;2218;51.408;7.208;2024-03-08T00:10:25;99959.78;;;18.60;35.23
4410;BME280;2218;51.408;7.208;2024-03-08T00:12:54;99957.97;;;18.61;35.08
4410;BME280;2218;51.408;7.208;2024-03-08T00:15:21;99964.25;;;18.58;34.82
4410;BME280;2218;51.408;7.208;2024-03-08T00:17:49;99959.09;;;18.57;35.13
4410;BME280;2218;51.408;7.208;2024-03-08T00:20:16;99955.75;;;18.55;34.91
4410;BME280;2218;51.408;7.208;2024-03-08T00:22:44;99953.19;;;18.53;34.89
4410;BME280;2218;51.408;7.208;2024-03-08T00:25:11;99954.03;;;18.54;34.82
4410;BME280;2218;51.408;7.208;2024-03-08T00:27:40;99952.34;;;18.53;34.86
4410;BME280;2218;51.408;7.208;2024-03-08T00:30:08;99956.75;;;18.52;35.16
4410;BME280;2218;51.408;7.208;2024-03-08T00:32:36;99955.06;;;18.51;34.92
4410;BME280;2218;51.408;7.208;2024-03-08T00:35:04;99948.97;;;18.51;34.81
4410;BME280;2218;51.408;7.208;2024-03-08T00:37:33;99946.50;;;18.48;34.77
4410;BME280;2218;51.408;7.208;2024-03-08T00:40:00;99949.16;;;18.48;35.00
4410;BME280;2218;51.408;7.208;2024-03-08T00:42:27;99946.63;;;18.46;35.18
4410;BME280;2218;51.408;7.208;2024-03-08T00:44:56;99945.78;;;18.46;35.12
4410;BME280;2218;51.408;7.208;2024-03-08T00:47:23;99945.78;;;18.46;34.79
4410;BME280;2218;51.408;7.208;2024-03-08T00:49:50;99944.06;;;18.45;35.12
4410;BME280;2218;51.408;7.208;2024-03-08T00:52:17;99948.47;;;18.44;35.07
4410;BME280;2218;51.408;7.208;2024-03-08T00:54:45;99944.28;;;18.42;34.71
4410;BME280;2218;51.408;7.208;2024-03-08T00:57:12;99939.00;;;18.42;35.17
4410;BME280;2218;51.408;7.208;2024-03-08T00:59:39;99934.75;;;18.39;35.00
4410;BME280;2218;51.408;7.208;2024-03-08T01:02:07;99940.88;;;18.40;34.96
4410;BME280;2218;51.408;7.208;2024-03-08T01:04:35;99932.25;;;18.38;34.77
4410;BME280;2218;51.408;7.208;2024-03-08T01:07:02;99926.97;;;18.38;34.77
4410;BME280;2218;51.408;7.208;2024-03-08T01:09:29;99921.81;;;18.36;34.95
4410;BME280;2218;51.408;7.208;2024-03-08T01:11:56;99921.88;;;18.34;34.78
4410;BME280;2218;51.408;7.208;2024-03-08T01:14:24;99916.63;;;18.34;34.93
4410;BME280;2218;51.408;7.208;2024-03-08T01:16:52;99912.31;;;18.33;34.95
4410;BME280;2218;51.408;7.208;2024-03-08T01:19:21;99904.53;;;18.32;34.63
4410;BME280;2218;51.408;7.208;2024-03-08T01:21:49;99904.63;;;18.30;35.06
4410;BME280;2218;51.408;7.208;2024-03-08T01:24:17;99896.75;;;18.30;34.85
4410;BME280;2218;51.408;7.208;2024-03-08T01:26:44;99894.94;;;18.31;34.67
4410;BME280;2218;51.408;7.208;2024-03-08T01:29:10;99898.53;;;18.30;34.90
4410;BME280;2218;51.408;7.208;2024-03-08T01:31:37;99890.72;;;18.28;34.80
4410;BME280;2218;51.408;7.208;2024-03-08T01:34:04;99885.56;;;18.27;34.97
4410;BME280;2218;51.408;7.208;2024-03-08T01:36:33;99896.06;;;18.27;34.96
4410;BME280;2218;51.408;7.208;2024-03-08T01:39:00;99888.19;;;18.27;34.83
4410;BME280;2218;51.408;7.208;2024-03-08T01:41:27;99880.41;;;18.25;34.91
4410;BME280;2218;51.408;7.208;2024-03-08T01:43:55;99878.69;;;18.24;34.66
4410;BME280;2218;51.408;7.208;2024-03-08T01:46:22;99871.75;;;18.23;34.84
4410;BME280;2218;51.408;7.208;2024-03-08T01:49:26;99864.78;;;18.22;34.71
4410;BME280;2218;51.408;7.208;2024-03-08T01:51:56;99868.38;;;18.21;34.83
4410;BME280;2218;51.408;7.208;2024-03-08T01:54:24;99863.09;;;18.21;34.79
4410;BME280;2218;51.408;7.208;2024-03-08T01:56:51;99860.47;;;18.21;34.53
4410;BME280;2218;51.408;7.208;2024-03-08T01:59:19;99857.84;;;18.21;34.70
4410;BME280;2218;51.408;7.208;2024-03-08T02:01:46;99858.78;;;18.20;34.75
4410;BME280;2218;51.408;7.208;2024-03-08T02:04:13;99846.66;;;18.18;34.47
4410;BME280;2218;51.408;7.208;2024-03-08T02:06:40;99845.81;;;18.17;34.61
4410;BME280;2218;51.408;7.208;2024-03-08T02:09:09;99844.13;;;18.16;34.44
4410;BME280;2218;51.408;7.208;2024-03-08T02:11:36;99845.09;;;18.15;34.62
4410;BME280;2218;51.408;7.208;2024-03-08T02:14:03;99849.41;;;18.16;34.65
4410;BME280;2218;51.408;7.208;2024-03-08T02:16:32;99835.47;;;18.14;34.89
4410;BME280;2218;51.408;7.208;2024-03-08T02:18:59;99832.94;;;18.13;34.85
4410;BME280;2218;51.408;7.208;2024-03-08T02:21:28;99842.47;;;18.15;34.53
4410;BME280;2218;51.408;7.208;2024-03-08T02:23:56;99840.38;;;18.20;34.41
4410;BME280;2218;51.408;7.208;2024-03-08T02:26:23;99833.03;;;18.25;34.40
4410;BME280;2218;51.408;7.208;2024-03-08T02:28:50;99839.59;;;18.32;34.09
4410;BME280;2218;51.408;7.208;2024-03-08T02:31:17;99818.38;;;18.36;34.57
4410;BME280;2218;51.408;7.208;2024-03-08T02:33:44;99823.22;;;18.42;33.98
4410;BME280;2218;51.408;7.208;2024-03-08T02:36:13;99824.72;;;18.46;34.19
4410;BME280;2218;51.408;7.208;2024-03-08T02:38:41;99817.38;;;18.51;34.23
4410;BME280;2218;51.408;7.208;2024-03-08T02:41:08;99820.75;;;18.53;33.81
4410;BME280;2218;51.408;7.208;2024-03-08T02:43:36;99815.28;;;18.56;34.08
4410;BME280;2218;51.408;7.208;2024-03-08T02:46:03;99806.44;;;18.57;33.82
4410;BME280;2218;51.408;7.208;2024-03-08T02:48:31;99812.44;;;18.59;33.59
4410;BME280;2218;51.408;7.208;2024-03-08T02:50:58;99811.53;;;18.60;33.87
4410;BME280;2218;51.408;7.208;2024-03-08T02:53:27;99809.63;;;18.62;33.67
4410;BME280;2218;51.408;7.208;2024-03-08T02:55:56;99815.63;;;18.64;33.66
4410;BME280;2218;51.408;7.208;2024-03-08T02:58:23;99813.00;;;18.64;33.87
4410;BME280;2218;51.408;7.208;2024-03-08T03:00:50;99806.69;;;18.67;33.61
4410;BME280;2218;51.408;7.208;2024-03-08T03:03:17;99806.69;;;18.67;33.75
4410;BME280;2218;51.408;7.208;2024-03-08T03:05:44;99801.44;;;18.67;34.03
4410;BME280;2218;51.408;7.208;2024-03-08T03:08:11;99802.28;;;18.67;33.75
4410;BME280;2218;51.408;7.208;2024-03-08T03:10:38;99797.00;;;18.67;33.61
4410;BME280;2218;51.408;7.208;2024-03-08T03:13:07;99786.47;;;18.67;33.68
4410;BME280;2218;51.408;7.208;2024-03-08T03:15:34;99781.22;;;18.67;33.83
4410;BME280;2218;51.408;7.208;2024-03-08T03:18:02;99783.00;;;18.67;33.68
4410;BME280;2218;51.408;7.208;2024-03-08T03:20:29;99777.75;;;18.67;33.66
4410;BME280;2218;51.408;7.208;2024-03-08T03:22:59;99779.53;;;18.66;33.80
4410;BME280;2218;51.408;7.208;2024-03-08T03:25:28;99777.84;;;18.65;33.75
4410;BME280;2218;51.408;7.208;2024-03-08T03:27:59;99772.59;;;18.65;33.72
4410;BME280;2218;51.408;7.208;2024-03-08T03:30:28;99767.31;;;18.65;33.38
4410;BME280;2218;51.408;7.208;2024-03-08T03:32:59;99768.34;;;18.63;33.72
4410;BME280;2218;51.408;7.208;2024-03-08T03:35:28;99764.78;;;18.64;33.43
4410;BME280;2218;51.408;7.208;2024-03-08T03:37:55;99762.13;;;18.64;33.38
4410;BME280;2218;51.408;7.208;2024-03-08T03:40:28;99761.28;;;18.63;32.94
4410;BME280;2218;51.408;7.208;2024-03-08T03:42:55;99769.19;;;18.63;33.22
4410;BME280;2218;51.408;7.208;2024-03-08T03:45:23;99758.66;;;18.63;33.54
4410;BME280;2218;51.408;7.208;2024-03-08T03:47:51;99760.47;;;18.63;33.64
4410;BME280;2218;51.408;7.208;2024-03-08T03:50:19;99760.47;;;18.63;33.35
4410;BME280;2218;51.408;7.208;2024-03-08T03:52:46;99751.72;;;18.62;33.29
4410;BME280;2218;51.408;7.208;2024-03-08T03:55:14;99749.94;;;18.63;33.32
4410;BME280;2218;51.408;7.208;2024-03-08T03:57:41;99756.97;;;18.62;33.18
4410;BME280;2218;51.408;7.208;2024-03-08T04:00:10;99756.03;;;18.63;33.42
4410;BME280;2218;51.408;7.208;2024-03-08T04:02:42;99756.97;;;18.62;33.56
4410;BME280;2218;51.408;7.208;2024-03-08T04:05:11;99759.63;;;18.62;33.21
4410;BME280;2218;51.408;7.208;2024-03-08T04:07:39;99750.03;;;18.61;33.40
4410;BME280;2218;51.408;7.208;2024-03-08T04:10:08;99752.66;;;18.61;33.08
4410;BME280;2218;51.408;7.208;2024-03-08T04:12:37;99755.31;;;18.61;33.15
4410;BME280;2218;51.408;7.208;2024-03-08T04:15:05;99747.41;;;18.61;33.14
4410;BME280;2218;51.408;7.208;2024-03-08T04:17:33;99746.66;;;18.59;32.91
4410;BME280;2218;51.408;7.208;2024-03-08T04:20:03;99751.91;;;18.59;33.04
4410;BME280;2218;51.408;7.208;2024-03-08T04:22:37;99747.59;;;18.58;33.31
4410;BME280;2218;51.408;7.208;2024-03-08T04:25:06;99745.81;;;18.58;32.92
4410;BME280;2218;51.408;7.208;2024-03-08T04:27:33;99745.81;;;18.58;33.14
4410;BME280;2218;51.408;7.208;2024-03-08T04:30:00;99744.97;;;18.58;33.38
4410;BME280;2218;51.408;7.208;2024-03-08T04:32:27;99741.59;;;18.56;33.26
4410;BME280;2218;51.408;7.208;2024-03-08T04:34:55;99738.00;;;18.57;32.98
4410;BME280;2218;51.408;7.208;2024-03-08T04:37:22;99738.97;;;18.56;32.93
4410;BME280;2218;51.408;7.208;2024-03-08T04:39:51;99739.91;;;18.55;33.01
4410;BME280;2218;51.408;7.208;2024-03-08T04:42:18;99732.03;;;18.55;32.92
4410;BME280;2218;51.408;7.208;2024-03-08T04:44:45;99732.03;;;18.55;33.12
4410;BME280;2218;51.408;7.208;2024-03-08T04:47:12;99738.13;;;18.55;33.02
4410;BME280;2218;51.408;7.208;2024-03-08T04:49:40;99726.84;;;18.53;32.83
4410;BME280;2218;51.408;7.208;2024-03-08T04:52:07;99727.69;;;18.54;32.98
4410;BME280;2218;51.408;7.208;2024-03-08T04:54:34;99726.75;;;18.55;33.11
4410;BME280;2218;51.408;7.208;2024-03-08T04:57:02;99718.00;;;18.54;33.14
4410;BME280;2218;51.408;7.208;2024-03-08T04:59:30;99724.97;;;18.55;32.94
4410;BME280;2218;51.408;7.208;2024-03-08T05:01:57;99732.03;;;18.55;32.83
4410;BME280;2218;51.408;7.208;2024-03-08T05:04:24;99727.69;;;18.54;32.85
4410;BME280;2218;51.408;7.208;2024-03-08T05:06:51;99729.41;;;18.55;32.75
4410;BME280;2218;51.408;7.208;2024-03-08T05:09:19;99727.59;;;18.55;32.75
4410;BME280;2218;51.408;7.208;2024-03-08T05:11:47;99725.81;;;18.56;32.83
4410;BME280;2218;51.408;7.208;2024-03-08T05:14:15;99731.91;;;18.56;32.82
4410;BME280;2218;51.408;7.208;2024-03-08T05:16:46;99716.13;;;18.56;32.24
4410;BME280;2218;51.408;7.208;2024-03-08T05:19:14;99721.28;;;18.58;32.74
4410;BME280;2218;51.408;7.208;2024-03-08T05:21:43;99710.63;;;18.59;32.50
4410;BME280;2218;51.408;7.208;2024-03-08T05:24:11;99706.25;;;18.60;32.67
4410;BME280;2218;51.408;7.208;2024-03-08T05:26:39;99707.91;;;18.61;32.59
4410;BME280;2218;51.408;7.208;2024-03-08T05:29:06;99707.91;;;18.61;32.70
4410;BME280;2218;51.408;7.208;2024-03-08T05:31:45;99710.56;;;18.61;32.43
4410;BME280;2218;51.408;7.208;2024-03-08T05:34:13;99708.66;;;18.63;32.80
4410;BME280;2218;51.408;7.208;2024-03-08T05:36:40;99707.69;;;18.64;32.46
4410;BME280;2218;51.408;7.208;2024-03-08T05:39:10;99706.03;;;18.63;32.61
4410;BME280;2218;51.408;7.208;2024-03-08T05:41:37;99709.41;;;18.65;32.48
4410;BME280;2218;51.408;7.208;2024-03-08T05:44:05;99706.78;;;18.65;32.20
4410;BME280;2218;51.408;7.208;2024-03-08T05:46:32;99710.25;;;18.66;32.48
4410;BME280;2218;51.408;7.208;2024-03-08T05:49:00;99706.66;;;18.67;32.13
4410;BME280;2218;51.408;7.208;2024-03-08T05:51:31;99699.59;;;18.67;32.15
4410;BME280;2218;51.408;7.208;2024-03-08T05:54:00;99703.19;;;18.66;32.30
4410;BME280;2218;51.408;7.208;2024-03-08T05:56:29;99693.44;;;18.68;32.25
4410;BME280;2218;51.408;7.208;2024-03-08T05:58:56;99688.16;;;18.68;32.19
4410;BME280;2218;51.408;7.208;2024-03-08T06:01:24;99694.25;;;18.69;32.30
4410;BME280;2218;51.408;7.208;2024-03-08T06:03:51;99696.06;;;18.68;32.34
4410;BME280;2218;51.408;7.208;2024-03-08T06:06:23;99701.25;;;18.70;32.17
4410;BME280;2218;51.408;7.208;2024-03-08T06:08:50;99694.19;;;18.70;31.86
4410;BME280;2218;51.408;7.208;2024-03-08T06:11:19;99696.81;;;18.70;32.11
4410;BME280;2218;51.408;7.208;2024-03-08T06:13:47;99700.19;;;18.72;32.29
4410;BME280;2218;51.408;7.208;2024-03-08T06:16:14;99699.22;;;18.73;32.13
4410;BME280;2218;51.408;7.208;2024-03-08T06:18:41;99694.81;;;18.74;32.25
4410;BME280;2218;51.408;7.208;2024-03-08T06:21:09;99693.88;;;18.75;32.24
4410;BME280;2218;51.408;7.208;2024-03-08T06:23:39;99689.44;;;18.75;32.05
4410;BME280;2218;51.408;7.208;2024-03-08T06:26:06;99685.88;;;18.76;31.92
4410;BME280;2218;51.408;7.208;2024-03-08T06:28:33;99688.38;;;18.78;31.98
4410;BME280;2218;51.408;7.208;2024-03-08T06:31:00;99683.97;;;18.78;32.07
4410;BME280;2218;51.408;7.208;2024-03-08T06:33:28;99689.16;;;18.80;31.86
4410;BME280;2218;51.408;7.208;2024-03-08T06:35:56;99689.03;;;18.81;31.89
4410;BME280;2218;51.408;7.208;2024-03-08T06:38:23;99695.03;;;18.83;31.60
4410;BME280;2218;51.408;7.208;2024-03-08T06:40:52;99694.94;;;18.85;31.85
4410;BME280;2218;51.408;7.208;2024-03-08T06:43:20;99693.03;;;18.87;31.63
4410;BME280;2218;51.408;7.208;2024-03-08T06:45:47;99689.44;;;18.88;31.68
4410;BME280;2218;51.408;7.208;2024-03-08T06:48:15;99686.72;;;18.90;31.57
4410;BME280;2218;51.408;7.208;2024-03-08T06:50:43;99690.94;;;18.92;31.60
4410;BME280;2218;51.408;7.208;2024-03-08T06:53:11;99690.75;;;18.95;31.54
4410;BME280;2218;51.408;7.208;2024-03-08T06:55:38;99695.88;;;18.97;31.18
4410;BME280;2218;51.408;7.208;2024-03-08T06:58:06;99693.97;;;18.99;31.41
4410;BME280;2218;51.408;7.208;2024-03-08T07:00:33;99690.31;;;19.01;31.24
4410;BME280;2218;51.408;7.208;2024-03-08T07:03:02;99687.56;;;19.03;31.21
4410;BME280;2218;51.408;7.208;2024-03-08T07:05:29;99687.38;;;19.06;31.26
4410;BME280;2218;51.408;7.208;2024-03-08T07:07:58;99686.28;;;19.08;31.29
4410;BME280;2218;51.408;7.208;2024-03-08T07:10:25;99691.38;;;19.11;31.09
4410;BME280;2218;51.408;7.208;2024-03-08T07:12:53;99697.28;;;19.15;31.38
4410;BME280;2218;51.408;7.208;2024-03-08T07:15:21;99697.16;;;19.17;31.40
4410;BME280;2218;51.408;7.208;2024-03-08T07:17:49;99690.72;;;19.21;31.10
4410;BME280;2218;51.408;7.208;2024-03-08T07:20:18;99694.09;;;19.23;31.08
4410;BME280;2218;51.408;7.208;2024-03-08T07:22:45;99687.78;;;19.25;30.95
4410;BME280;2218;51.408;7.208;2024-03-08T07:25:14;99688.50;;;19.27;31.30
4410;BME280;2218;51.408;7.208;2024-03-08T07:27:47;99685.75;;;19.29;31.21
4410;BME280;2218;51.408;7.208;2024-03-08T07:30:14;99688.19;;;19.32;31.15
4410;BME280;2218;51.408;7.208;2024-03-08T07:33:05;99685.44;;;19.33;31.09
4410;BME280;2218;51.408;7.208;2024-03-08T07:35:33;99674.69;;;19.36;31.06
4410;BME280;2218;51.408;7.208;2024-03-08T07:38:03;99676.16;;;19.41;30.88
4410;BME280;2218;51.408;7.208;2024-03-08T07:40:31;99686.06;;;19.50;30.64
4410;BME280;2218;51.408;7.208;2024-03-08T07:42:59;99675.19;;;19.54;30.63
4410;BME280;2218;51.408;7.208;2024-03-08T07:45:26;99673.16;;;19.58;30.25
4410;BME280;2218;51.408;7.208;2024-03-08T07:47:53;99674.00;;;19.58;30.25
4410;BME280;2218;51.408;7.208;2024-03-08T07:50:23;99666.03;;;19.60;29.97
4410;BME280;2218;51.408;7.208;2024-03-08T07:52:50;99664.75;;;19.66;29.69
4410;BME280;2218;51.408;7.208;2024-03-08T07:55:17;99663.69;;;19.68;30.00
4410;BME280;2218;51.408;7.208;2024-03-08T07:57:44;99663.69;;;19.68;29.75
4410;BME280;2218;51.408;7.208;2024-03-08T08:00:14;99656.50;;;19.70;30.19
4410;BME280;2218;51.408;7.208;2024-03-08T08:02:44;99647.66;;;19.71;30.07
4410;BME280;2218;51.408;7.208;2024-03-08T08:05:12;99651.00;;;19.73;29.95
4410;BME280;2218;51.408;7.208;2024-03-08T08:07:44;99653.63;;;19.73;30.27
4410;BME280;2218;51.408;7.208;2024-03-08T08:10:12;99643.94;;;19.74;30.06
4410;BME280;2218;51.408;7.208;2024-03-08T08:12:44;99645.53;;;19.76;30.19
4410;BME280;2218;51.408;7.208;2024-03-08T08:15:12;99641.91;;;19.77;30.04
4410;BME280;2218;51.408;7.208;2024-03-08T08:17:41;99634.75;;;19.79;30.20
4410;BME280;2218;51.408;7.208;2024-03-08T08:20:09;99636.44;;;19.80;30.39
4410;BME280;2218;51.408;7.208;2024-03-08T08:22:37;99630.31;;;19.80;30.19
4410;BME280;2218;51.408;7.208;2024-03-08T08:25:07;99624.31;;;19.78;30.21
4410;BME280;2218;51.408;7.208;2024-03-08T08:27:34;99623.25;;;19.80;30.57
4410;BME280;2218;51.408;7.208;2024-03-08T08:30:04;99626.59;;;19.82;30.35
4410;BME280;2218;51.408;7.208;2024-03-08T08:32:34;99615.09;;;19.83;30.12
4410;BME280;2218;51.408;7.208;2024-03-08T08:35:02;99615.72;;;19.87;30.02
4410;BME280;2218;51.408;7.208;2024-03-08T08:37:30;99619.31;;;19.86;30.09
4410;BME280;2218;51.408;7.208;2024-03-08T08:39:57;99605.28;;;19.85;29.89
4410;BME280;2218;51.408;7.208;2024-03-08T08:42:25;99610.44;;;19.87;29.82
4410;BME280;2218;51.408;7.208;2024-03-08T08:44:54;99601.59;;;19.88;29.34
4410;BME280;2218;51.408;7.208;2024-03-08T08:47:23;99594.63;;;19.87;29.47
4410;BME280;2218;51.408;7.208;2024-03-08T08:49:50;99596.31;;;19.88;29.39
4410;BME280;2218;51.408;7.208;2024-03-08T08:52:17;99590.94;;;19.90;29.62
4410;BME280;2218;51.408;7.208;2024-03-08T08:54:44;99598.00;;;19.89;29.30
4410;BME280;2218;51.408;7.208;2024-03-08T08:57:11;99584.69;;;19.91;29.45
4410;BME280;2218;51.408;7.208;2024-03-08T08:59:40;99577.75;;;19.90;29.25
4410;BME280;2218;51.408;7.208;2024-03-08T09:02:07;99577.75;;;19.90;29.40
4410;BME280;2218;51.408;7.208;2024-03-08T09:04:35;99574.16;;;19.91;29.33
4410;BME280;2218;51.408;7.208;2024-03-08T09:07:02;99577.50;;;19.93;29.96
4410;BME280;2218;51.408;7.208;2024-03-08T09:09:32;99579.19;;;19.94;29.81
4410;BME280;2218;51.408;7.208;2024-03-08T09:11:59;99568.75;;;19.92;29.71
4410;BME280;2218;51.408;7.208;2024-03-08T09:14:26;99563.34;;;19.94;29.84
4410;BME280;2218;51.408;7.208;2024-03-08T09:16:55;99560.72;;;19.94;29.75
4410;BME280;2218;51.408;7.208;2024-03-08T09:19:22;99557.25;;;19.93;29.67
4410;BME280;2218;51.408;7.208;2024-03-08T09:21:51;99561.59;;;19.94;29.67
4410;BME280;2218;51.408;7.208;2024-03-08T09:24:18;99551.88;;;19.95;29.28
4410;BME280;2218;51.408;7.208;2024-03-08T09:26:45;99549.25;;;19.95;29.59
4410;BME280;2218;51.408;7.208;2024-03-08T09:29:12;99544.81;;;19.95;29.56
4410;BME280;2218;51.408;7.208;2024-03-08T09:31:40;99544.69;;;19.97;29.59
4410;BME280;2218;51.408;7.208;2024-03-08T09:34:08;99542.03;;;19.97;29.67
4410;BME280;2218;51.408;7.208;2024-03-08T09:36:35;99540.38;;;19.96;29.84
4410;BME280;2218;51.408;7.208;2024-03-08T09:39:02;99541.19;;;19.96;29.60
4410;BME280;2218;51.408;7.208;2024-03-08T09:41:33;99537.59;;;19.97;29.73
4410;BME280;2218;51.408;7.208;2024-03-08T09:44:00;99534.97;;;19.97;29.33
4410;BME280;2218;51.408;7.208;2024-03-08T09:46:30;99535.72;;;19.99;29.73
4410;BME280;2218;51.408;7.208;2024-03-08T09:48:57;99516.28;;;20.00;29.74
4410;BME280;2218;51.408;7.208;2024-03-08T09:51:28;99528.72;;;19.98;29.94
4410;BME280;2218;51.408;7.208;2024-03-08T09:53:56;99530.53;;;19.98;30.16
4410;BME280;2218;51.408;7.208;2024-03-08T09:56:25;99520.94;;;19.97;30.40
4410;BME280;2218;51.408;7.208;2024-03-08T09:58:53;99511.34;;;19.96;30.31
4410;BME280;2218;51.408;7.208;2024-03-08T10:01:46;99507.75;;;19.97;30.09
4410;BME280;2218;51.408;7.208;2024-03-08T10:04:12;99502.47;;;19.97;30.54
4410;BME280;2218;51.408;7.208;2024-03-08T10:06:41;99495.53;;;19.96;30.62
4410;BME280;2218;51.408;7.208;2024-03-08T10:09:09;99493.84;;;19.95;30.44
4410;BME280;2218;51.408;7.208;2024-03-08T10:11:36;99493.00;;;19.94;30.65
4410;BME280;2218;51.408;7.208;2024-03-08T10:14:05;99495.28;;;19.99;30.58
4410;BME280;2218;51.408;7.208;2024-03-08T10:16:34;99488.28;;;20.44;29.83
4410;BME280;2218;51.408;7.208;2024-03-08T10:19:01;99487.78;;;20.28;29.88
4410;BME280;2218;51.408;7.208;2024-03-08T10:21:32;99492.44;;;20.13;29.92
4410;BME280;2218;51.408;7.208;2024-03-08T10:24:02;99482.22;;;20.08;30.22
4410;BME280;2218;51.408;7.208;2024-03-08T10:26:30;99482.34;;;20.07;30.14
4410;BME280;2218;51.408;7.208;2024-03-08T10:28:57;99478.88;;;20.06;29.93
4410;BME280;2218;51.408;7.208;2024-03-08T10:31:24;99478.03;;;20.06;29.87
4410;BME280;2218;51.408;7.208;2024-03-08T10:33:51;99472.75;;;20.06;29.81
4410;BME280;2218;51.408;7.208;2024-03-08T10:36:18;99470.13;;;20.06;30.01
4410;BME280;2218;51.408;7.208;2024-03-08T10:38:46;99466.66;;;20.05;30.12
4410;BME280;2218;51.408;7.208;2024-03-08T10:41:16;99462.22;;;20.06;30.03
4410;BME280;2218;51.408;7.208;2024-03-08T10:44:08;99451.66;;;20.06;29.85
4410;BME280;2218;51.408;7.208;2024-03-08T10:46:56;99447.22;;;20.06;29.93
4410;BME280;2218;51.408;7.208;2024-03-08T10:49:32;99448.06;;;20.07;29.70
4410;BME280;2218;51.408;7.208;2024-03-08T10:52:03;99453.34;;;20.07;29.79
4410;BME280;2218;51.408;7.208;2024-03-08T10:54:31;99441.81;;;20.08;29.81
4410;BME280;2218;51.408;7.208;2024-03-08T10:57:05;99432.97;;;20.09;29.82
4410;BME280;2218;51.408;7.208;2024-03-08T10:59:34;99424.19;;;20.08;29.72
4410;BME280;2218;51.408;7.208;2024-03-08T11:02:02;99422.41;;;20.09;29.49
4410;BME280;2218;51.408;7.208;2024-03-08T11:04:31;99419.78;;;20.09;29.82
4410;BME280;2218;51.408;7.208;2024-03-08T11:07:01;99411.00;;;20.08;29.80
4410;BME280;2218;51.408;7.208;2024-03-08T11:09:33;99417.84;;;20.11;30.08
4410;BME280;2218;51.408;7.208;2024-03-08T11:12:37;99411.00;;;20.08;30.29
4410;BME280;2218;51.408;7.208;2024-03-08T11:15:11;99398.78;;;20.07;30.34
4410;BME280;2218;51.408;7.208;2024-03-08T11:17:47;99409.31;;;20.07;30.17
4410;BME280;2218;51.408;7.208;2024-03-08T11:20:16;99393.63;;;20.06;30.49
4410;BME280;2218;51.408;7.208;2024-03-08T11:22:52;99391.81;;;20.06;30.53
4410;BME280;2218;51.408;7.208;2024-03-08T11:25:37;99385.72;;;20.06;30.66
4410;BME280;2218;51.408;7.208;2024-03-08T11:28:13;99383.91;;;20.06;30.55
4410;BME280;2218;51.408;7.208;2024-03-08T11:30:45;99376.13;;;20.05;30.71
4410;BME280;2218;51.408;7.208;2024-03-08T11:33:15;99377.81;;;20.06;30.70
4410;BME280;2218;51.408;7.208;2024-03-08T11:35:43;99375.28;;;20.04;30.85
4410;BME280;2218;51.408;7.208;2024-03-08T11:38:12;99373.50;;;20.05;30.79
4410;BME280;2218;51.408;7.208;2024-03-08T11:40:40;99365.56;;;20.05;30.86
4410;BME280;2218;51.408;7.208;2024-03-08T11:43:09;99368.22;;;20.05;30.99
4410;BME280;2218;51.408;7.208;2024-03-08T11:45:37;99365.56;;;20.05;31.04
4410;BME280;2218;51.408;7.208;2024-03-08T11:48:07;99357.66;;;20.05;30.96
4410;BME280;2218;51.408;7.208;2024-03-08T11:50:34;99357.66;;;20.05;30.40
4410;BME280;2218;51.408;7.208;2024-03-08T11:53:03;99349.75;;;20.05;31.20
4410;BME280;2218;51.408;7.208;2024-03-08T11:55:31;99348.91;;;20.04;31.10
4410;BME280;2218;51.408;7.208;2024-03-08T11:58:03;99337.50;;;20.04;31.11
4410;BME280;2218;51.408;7.208;2024-03-08T12:00:31;99331.38;;;20.03;31.07
4410;BME280;2218;51.408;7.208;2024-03-08T12:03:05;99323.38;;;20.05;31.09
4410;BME280;2218;51.408;7.208;2024-03-08T12:05:33;99319.03;;;20.04;31.16
4410;BME280;2218;51.408;7.208;2024-03-08T12:08:02;99317.25;;;20.04;31.09
4410;BME280;2218;51.408;7.208;2024-03-08T12:10:30;99315.56;;;20.03;31.29
4410;BME280;2218;51.408;7.208;2024-03-08T12:12:59;99297.22;;;20.02;31.17
4410;BME280;2218;51.408;7.208;2024-03-08T12:15:27;99307.53;;;20.05;31.03
4410;BME280;2218;51.408;7.208;2024-03-08T12:17:56;99291.47;;;20.08;30.99
4410;BME280;2218;51.408;7.208;2024-03-08T12:20:26;99291.47;;;20.08;30.97
4410;BME280;2218;51.408;7.208;2024-03-08T12:22:55;99286.91;;;20.10;30.77
4410;BME280;2218;51.408;7.208;2024-03-08T12:25:26;99289.56;;;20.10;30.76
4410;BME280;2218;51.408;7.208;2024-03-08T12:27:53;99277.06;;;20.12;30.72
4410;BME280;2218;51.408;7.208;2024-03-08T12:30:24;99270.81;;;20.13;30.76
4410;BME280;2218;51.408;7.208;2024-03-08T12:32:59;99270.81;;;20.13;30.54
4410;BME280;2218;51.408;7.208;2024-03-08T12:35:28;99257.63;;;20.13;30.52
4410;BME280;2218;51.408;7.208;2024-03-08T12:37:57;99248.78;;;20.14;30.39
4410;BME280;2218;51.408;7.208;2024-03-08T12:40:29;99248.78;;;20.14;30.47
4410;BME280;2218;51.408;7.208;2024-03-08T12:42:58;99241.69;;;20.14;30.54
4410;BME280;2218;51.408;7.208;2024-03-08T12:45:25;99241.56;;;20.16;30.58
4410;BME280;2218;51.408;7.208;2024-03-08T12:47:53;99231.03;;;20.16;30.46
4410;BME280;2218;51.408;7.208;2024-03-08T12:50:22;99243.25;;;20.17;30.66
4410;BME280;2218;51.408;7.208;2024-03-08T12:52:51;99235.31;;;20.17;30.69
4410;BME280;2218;51.408;7.208;2024-03-08T12:55:18;99231.72;;;20.18;30.52
4410;BME280;2218;51.408;7.208;2024-03-08T12:57:46;99223.81;;;20.18;30.59
4410;BME280;2218;51.408;7.208;2024-03-08T13:00:15;99226.44;;;20.18;30.68
4410;BME280;2218;51.408;7.208;2024-03-08T13:02:45;99220.34;;;20.18;31.00
4410;BME280;2218;51.408;7.208;2024-03-08T13:05:14;99213.25;;;20.18;30.94
4410;BME280;2218;51.408;7.208;2024-03-08T13:07:43;99202.69;;;20.18;30.91
4410;BME280;2218;51.408;7.208;2024-03-08T13:10:12;99206.31;;;20.17;30.78
4410;BME280;2218;51.408;7.208;2024-03-08T13:12:41;99199.34;;;20.16;30.58
4410;BME280;2218;51.408;7.208;2024-03-08T13:15:08;99188.81;;;20.16;30.58
4410;BME280;2218;51.408;7.208;2024-03-08T13:17:38;99190.47;;;20.17;30.45
4410;BME280;2218;51.408;7.208;2024-03-08T13:20:08;99190.47;;;20.17;30.30
4410;BME280;2218;51.408;7.208;2024-03-08T13:22:35;99185.19;;;20.17;30.60
4410;BME280;2218;51.408;7.208;2024-03-08T13:25:04;99186.88;;;20.18;30.15
4410;BME280;2218;51.408;7.208;2024-03-08T13:27:31;99190.47;;;20.17;29.78
4410;BME280;2218;51.408;7.208;2024-03-08T13:29:59;99189.50;;;20.18;29.93